sensor_id;sensor_type;location;lat;lon;timestamp;temperature;humidity
67005;HTU21D;53920;51.094;5.902;2023-05-07T00:00:05;15.62;77.35
67005;HTU21D;53920;51.094;5.902;2023-05-07T00:02:35;15.62;77.32
67005;HTU21D;53920;51.094;5.902;2023-05-07T00:05:02;15.66;77.29
67005;HTU21D;53920;51.094;5.902;2023-05-07T00:07:28;15.67;77.21
67005;HTU21D;53920;51.094;5.902;2023-05-07T00:09:53;15.66;77.24
67005;HTU21D;53920;51.094;5.902;2023-05-07T00:12:20;15.68;77.35
67005;HTU21D;53920;51.094;5.902;2023-05-07T00:14:46;15.71;77.44
67005;HTU21D;53920;51.094;5.902;2023-05-07T00:17:12;15.80;77.37
67005;HTU21D;53920;51.094;5.902;2023-05-07T00:19:38;15.83;77.29
67005;HTU21D;53920;51.094;5.902;2023-05-07T00:22:04;15.86;77.12
67005;HTU21D;53920;51.094;5.902;2023-05-07T00:24:29;15.90;77.11
67005;HTU21D;53920;51.094;5.902;2023-05-07T00:26:56;15.95;77.14
67005;HTU21D;53920;51.094;5.902;2023-05-07T00:29:23;15.96;76.94
67005;HTU21D;53920;51.094;5.902;2023-05-07T00:31:49;16.01;76.76
67005;HTU21D;53920;51.094;5.902;2023-05-07T00:34:16;16.04;76.35
67005;HTU21D;53920;51.094;5.902;2023-05-07T00:36:42;16.04;76.22
67005;HTU21D;53920;51.094;5.902;2023-05-07T00:39:08;16.04;76.33
67005;HTU21D;53920;51.094;5.902;2023-05-07T00:41:34;16.06;76.45
67005;HTU21D;53920;51.094;5.902;2023-05-07T00:44:00;16.11;76.44
67005;HTU21D;53920;51.094;5.902;2023-05-07T00:46:30;16.14;76.43
67005;HTU21D;53920;51.094;5.902;2023-05-07T00:48:56;16.14;76.31
67005;HTU21D;53920;51.094;5.902;2023-05-07T00:51:24;16.17;76.08
67005;HTU21D;53920;51.094;5.902;2023-05-07T00:53:51;16.15;75.92
67005;HTU21D;53920;51.094;5.902;2023-05-07T00:56:17;16.15;76.10
67005;HTU21D;53920;51.094;5.902;2023-05-07T00:58:43;16.15;76.10
67005;HTU21D;53920;51.094;5.902;2023-05-07T01:01:08;16.16;76.04
67005;HTU21D;53920;51.094;5.902;2023-05-07T01:03:34;16.16;76.02
67005;HTU21D;53920;51.094;5.902;2023-05-07T01:06:03;16.15;76.03
67005;HTU21D;53920;51.094;5.902;2023-05-07T01:08:31;16.15;75.95
67005;HTU21D;53920;51.094;5.902;2023-05-07T01:11:00;16.13;75.98
67005;HTU21D;53920;51.094;5.902;2023-05-07T01:13:27;16.08;76.17
67005;HTU21D;53920;51.094;5.902;2023-05-07T01:15:53;16.02;76.33
67005;HTU21D;53920;51.094;5.902;2023-05-07T01:18:19;16.02;76.42
67005;HTU21D;53920;51.094;5.902;2023-05-07T01:20:46;15.99;76.47
67005;HTU21D;53920;51.094;5.902;2023-05-07T01:23:12;15.97;76.26
67005;HTU21D;53920;51.094;5.902;2023-05-07T01:25:38;15.95;76.16
67005;HTU21D;53920;51.094;5.902;2023-05-07T01:28:06;15.92;76.11
67005;HTU21D;53920;51.094;5.902;2023-05-07T01:30:36;15.88;76.09
67005;HTU21D;53920;51.094;5.902;2023-05-07T01:33:14;15.83;76.18
67005;HTU21D;53920;51.094;5.902;2023-05-07T01:35:45;15.78;76.39
67005;HTU21D;53920;51.094;5.902;2023-05-07T01:38:12;15.74;76.50
67005;HTU21D;53920;51.094;5.902;2023-05-07T01:40:39;15.68;76.69
67005;HTU21D;53920;51.094;5.902;2023-05-07T01:43:06;15.59;76.89
67005;HTU21D;53920;51.094;5.902;2023-05-07T01:45:34;15.51;77.21
67005;HTU21D;53920;51.094;5.902;2023-05-07T01:48:02;15.42;77.54
67005;HTU21D;53920;51.094;5.902;2023-05-07T01:50:31;15.34;77.86
67005;HTU21D;53920;51.094;5.902;2023-05-07T01:52:57;15.28;78.04
67005;HTU21D;53920;51.094;5.902;2023-05-07T01:55:23;15.23;78.01
67005;HTU21D;53920;51.094;5.902;2023-05-07T01:57:49;15.15;78.05
67005;HTU21D;53920;51.094;5.902;2023-05-07T02:00:17;15.11;78.27
67005;HTU21D;53920;51.094;5.902;2023-05-07T02:02:44;15.06;78.44
67005;HTU21D;53920;51.094;5.902;2023-05-07T02:05:21;15.02;78.66
67005;HTU21D;53920;51.094;5.902;2023-05-07T02:07:54;15.02;78.85
67005;HTU21D;53920;51.094;5.902;2023-05-07T02:10:20;15.00;78.91
67005;HTU21D;53920;51.094;5.902;2023-05-07T02:12:46;14.99;79.05
67005;HTU21D;53920;51.094;5.902;2023-05-07T02:15:12;14.98;79.12
67005;HTU21D;53920;51.094;5.902;2023-05-07T02:18:07;15.00;79.30
67005;HTU21D;53920;51.094;5.902;2023-05-07T02:20:35;15.04;79.46
67005;HTU21D;53920;51.094;5.902;2023-05-07T02:23:01;15.12;79.46
67005;HTU21D;53920;51.094;5.902;2023-05-07T02:25:29;15.18;79.38
67005;HTU21D;53920;51.094;5.902;2023-05-07T02:27:56;15.26;79.16
67005;HTU21D;53920;51.094;5.902;2023-05-07T02:30:30;15.30;78.97
67005;HTU21D;53920;51.094;5.902;2023-05-07T02:32:57;15.36;78.47
67005;HTU21D;53920;51.094;5.902;2023-05-07T02:35:24;15.34;78.15
67005;HTU21D;53920;51.094;5.902;2023-05-07T02:37:51;15.30;78.05
67005;HTU21D;53920;51.094;5.902;2023-05-07T02:40:17;15.31;78.11
67005;HTU21D;53920;51.094;5.902;2023-05-07T02:42:42;15.30;78.35
67005;HTU21D;53920;51.094;5.902;2023-05-07T02:45:09;15.31;78.48
67005;HTU21D;53920;51.094;5.902;2023-05-07T02:47:35;15.34;78.47
67005;HTU21D;53920;51.094;5.902;2023-05-07T02:50:03;15.39;78.34
67005;HTU21D;53920;51.094;5.902;2023-05-07T02:52:30;15.44;78.31
67005;HTU21D;53920;51.094;5.902;2023-05-07T02:54:56;15.47;78.32
67005;HTU21D;53920;51.094;5.902;2023-05-07T02:57:22;15.51;78.30
67005;HTU21D;53920;51.094;5.902;2023-05-07T02:59:48;15.55;78.16
67005;HTU21D;53920;51.094;5.902;2023-05-07T03:02:15;15.59;77.95
67005;HTU21D;53920;51.094;5.902;2023-05-07T03:04:42;15.63;77.74
67005;HTU21D;53920;51.094;5.902;2023-05-07T03:07:08;15.67;77.43
67005;HTU21D;53920;51.094;5.902;2023-05-07T03:09:34;15.68;77.33
67005;HTU21D;53920;51.094;5.902;2023-05-07T03:12:00;15.70;77.24
67005;HTU21D;53920;51.094;5.902;2023-05-07T03:14:27;15.69;77.11
67005;HTU21D;53920;51.094;5.902;2023-05-07T03:16:53;15.65;76.96
67005;HTU21D;53920;51.094;5.902;2023-05-07T03:19:19;15.61;76.97
67005;HTU21D;53920;51.094;5.902;2023-05-07T03:21:44;15.59;77.01
67005;HTU21D;53920;51.094;5.902;2023-05-07T03:24:11;15.58;77.10
67005;HTU21D;53920;51.094;5.902;2023-05-07T03:26:37;15.58;77.22
67005;HTU21D;53920;51.094;5.902;2023-05-07T03:29:03;15.58;77.26
67005;HTU21D;53920;51.094;5.902;2023-05-07T03:31:29;15.57;77.24
67005;HTU21D;53920;51.094;5.902;2023-05-07T03:34:00;15.55;77.34
67005;HTU21D;53920;51.094;5.902;2023-05-07T03:36:26;15.56;77.37
67005;HTU21D;53920;51.094;5.902;2023-05-07T03:38:53;15.56;77.39
67005;HTU21D;53920;51.094;5.902;2023-05-07T03:41:22;15.55;77.31
67005;HTU21D;53920;51.094;5.902;2023-05-07T03:43:48;15.52;77.27
67005;HTU21D;53920;51.094;5.902;2023-05-07T03:46:14;15.48;77.20
67005;HTU21D;53920;51.094;5.902;2023-05-07T03:48:41;15.46;77.26
67005;HTU21D;53920;51.094;5.902;2023-05-07T03:51:07;15.46;77.40
67005;HTU21D;53920;51.094;5.902;2023-05-07T03:53:33;15.45;77.47
67005;HTU21D;53920;51.094;5.902;2023-05-07T03:55:59;15.44;77.60
67005;HTU21D;53920;51.094;5.902;2023-05-07T03:58:27;15.43;77.63
67005;HTU21D;53920;51.094;5.902;2023-05-07T04:00:57;15.40;77.65
67005;HTU21D;53920;51.094;5.902;2023-05-07T04:03:26;15.31;77.51
67005;HTU21D;53920;51.094;5.902;2023-05-07T04:05:53;15.23;77.50
67005;HTU21D;53920;51.094;5.902;2023-05-07T04:08:19;15.13;77.57
67005;HTU21D;53920;51.094;5.902;2023-05-07T04:10:54;15.08;77.73
67005;HTU21D;53920;51.094;5.902;2023-05-07T04:13:21;14.98;77.97
67005;HTU21D;53920;51.094;5.902;2023-05-07T04:15:47;14.96;78.23
67005;HTU21D;53920;51.094;5.902;2023-05-07T04:18:17;14.94;78.48
67005;HTU21D;53920;51.094;5.902;2023-05-07T04:20:45;14.92;78.86
67005;HTU21D;53920;51.094;5.902;2023-05-07T04:23:13;14.93;78.81
67005;HTU21D;53920;51.094;5.902;2023-05-07T04:25:39;14.92;78.64
67005;HTU21D;53920;51.094;5.902;2023-05-07T04:28:20;14.97;78.55
67005;HTU21D;53920;51.094;5.902;2023-05-07T04:30:46;15.00;78.59
67005;HTU21D;53920;51.094;5.902;2023-05-07T04:33:14;15.04;78.43
67005;HTU21D;53920;51.094;5.902;2023-05-07T04:35:43;15.09;78.44
67005;HTU21D;53920;51.094;5.902;2023-05-07T04:38:09;15.18;78.24
67005;HTU21D;53920;51.094;5.902;2023-05-07T04:40:36;15.29;78.09
67005;HTU21D;53920;51.094;5.902;2023-05-07T04:43:02;15.40;77.89
67005;HTU21D;53920;51.094;5.902;2023-05-07T04:45:32;15.51;77.61
67005;HTU21D;53920;51.094;5.902;2023-05-07T04:47:58;15.59;77.37
67005;HTU21D;53920;51.094;5.902;2023-05-07T04:50:23;15.68;77.15
67005;HTU21D;53920;51.094;5.902;2023-05-07T04:52:52;15.80;76.85
67005;HTU21D;53920;51.094;5.902;2023-05-07T04:55:18;15.89;76.60
67005;HTU21D;53920;51.094;5.902;2023-05-07T04:57:44;16.01;76.21
67005;HTU21D;53920;51.094;5.902;2023-05-07T05:00:13;16.16;75.77
67005;HTU21D;53920;51.094;5.902;2023-05-07T05:02:44;16.28;75.34
67005;HTU21D;53920;51.094;5.902;2023-05-07T05:05:13;16.37;74.93
67005;HTU21D;53920;51.094;5.902;2023-05-07T05:07:40;16.45;74.69
67005;HTU21D;53920;51.094;5.902;2023-05-07T05:10:09;16.56;74.60
67005;HTU21D;53920;51.094;5.902;2023-05-07T05:12:37;16.62;74.38
67005;HTU21D;53920;51.094;5.902;2023-05-07T05:15:04;16.67;74.28
67005;HTU21D;53920;51.094;5.902;2023-05-07T05:17:31;16.72;74.18
67005;HTU21D;53920;51.094;5.902;2023-05-07T05:19:57;16.71;73.83
67005;HTU21D;53920;51.094;5.902;2023-05-07T05:22:24;16.74;73.51
67005;HTU21D;53920;51.094;5.902;2023-05-07T05:24:51;16.78;73.35
67005;HTU21D;53920;51.094;5.902;2023-05-07T05:27:18;16.87;73.15
67005;HTU21D;53920;51.094;5.902;2023-05-07T05:29:44;16.94;72.77
67005;HTU21D;53920;51.094;5.902;2023-05-07T05:32:10;16.98;72.37
67005;HTU21D;53920;51.094;5.902;2023-05-07T05:34:36;16.95;72.55
67005;HTU21D;53920;51.094;5.902;2023-05-07T05:37:04;17.02;72.67
67005;HTU21D;53920;51.094;5.902;2023-05-07T05:39:30;17.10;72.67
67005;HTU21D;53920;51.094;5.902;2023-05-07T05:41:56;17.14;72.51
67005;HTU21D;53920;51.094;5.902;2023-05-07T05:44:22;17.16;72.48
67005;HTU21D;53920;51.094;5.902;2023-05-07T05:46:48;17.20;72.48
67005;HTU21D;53920;51.094;5.902;2023-05-07T05:49:18;17.25;72.25
67005;HTU21D;53920;51.094;5.902;2023-05-07T05:51:44;17.22;72.11
67005;HTU21D;53920;51.094;5.902;2023-05-07T05:54:10;17.18;72.10
67005;HTU21D;53920;51.094;5.902;2023-05-07T05:56:37;17.11;72.16
67005;HTU21D;53920;51.094;5.902;2023-05-07T05:59:03;17.06;72.28
67005;HTU21D;53920;51.094;5.902;2023-05-07T06:01:29;17.07;72.34
67005;HTU21D;53920;51.094;5.902;2023-05-07T06:03:58;17.03;72.41
67005;HTU21D;53920;51.094;5.902;2023-05-07T06:06:24;17.07;72.35
67005;HTU21D;53920;51.094;5.902;2023-05-07T06:08:50;17.15;72.10
67005;HTU21D;53920;51.094;5.902;2023-05-07T06:11:21;17.15;72.06
67005;HTU21D;53920;51.094;5.902;2023-05-07T06:13:47;17.23;71.72
67005;HTU21D;53920;51.094;5.902;2023-05-07T06:16:14;17.41;71.42
67005;HTU21D;53920;51.094;5.902;2023-05-07T06:18:40;17.61;71.19
67005;HTU21D;53920;51.094;5.902;2023-05-07T06:21:06;17.81;70.54
67005;HTU21D;53920;51.094;5.902;2023-05-07T06:23:33;18.03;69.94
67005;HTU21D;53920;51.094;5.902;2023-05-07T06:26:01;18.23;69.35
67005;HTU21D;53920;51.094;5.902;2023-05-07T06:28:34;18.44;68.47
67005;HTU21D;53920;51.094;5.902;2023-05-07T06:31:12;18.69;67.72
67005;HTU21D;53920;51.094;5.902;2023-05-07T06:33:39;18.92;67.01
67005;HTU21D;53920;51.094;5.902;2023-05-07T06:36:06;19.13;66.47
67005;HTU21D;53920;51.094;5.902;2023-05-07T06:38:32;19.11;65.81
67005;HTU21D;53920;51.094;5.902;2023-05-07T06:40:58;19.06;65.78
67005;HTU21D;53920;51.094;5.902;2023-05-07T06:43:24;19.01;65.69
67005;HTU21D;53920;51.094;5.902;2023-05-07T06:46:10;18.92;66.00
67005;HTU21D;53920;51.094;5.902;2023-05-07T06:48:36;18.96;66.11
67005;HTU21D;53920;51.094;5.902;2023-05-07T06:51:04;19.06;65.94
67005;HTU21D;53920;51.094;5.902;2023-05-07T06:53:31;19.14;65.59
67005;HTU21D;53920;51.094;5.902;2023-05-07T06:55:58;19.25;65.41
67005;HTU21D;53920;51.094;5.902;2023-05-07T06:58:25;19.30;65.08
67005;HTU21D;53920;51.094;5.902;2023-05-07T07:00:51;19.44;64.27
67005;HTU21D;53920;51.094;5.902;2023-05-07T07:03:18;19.52;64.08
67005;HTU21D;53920;51.094;5.902;2023-05-07T07:05:47;19.58;63.82
67005;HTU21D;53920;51.094;5.902;2023-05-07T07:08:13;19.61;63.69
67005;HTU21D;53920;51.094;5.902;2023-05-07T07:10:39;19.76;63.33
67005;HTU21D;53920;51.094;5.902;2023-05-07T07:13:05;19.94;62.86
67005;HTU21D;53920;51.094;5.902;2023-05-07T07:15:31;20.06;62.31
67005;HTU21D;53920;51.094;5.902;2023-05-07T07:17:58;20.21;62.10
67005;HTU21D;53920;51.094;5.902;2023-05-07T07:20:24;20.37;61.84
67005;HTU21D;53920;51.094;5.902;2023-05-07T07:22:51;20.46;61.73
67005;HTU21D;53920;51.094;5.902;2023-05-07T07:25:17;20.33;61.55
67005;HTU21D;53920;51.094;5.902;2023-05-07T07:27:43;20.49;61.31
67005;HTU21D;53920;51.094;5.902;2023-05-07T07:30:10;20.76;60.64
67005;HTU21D;53920;51.094;5.902;2023-05-07T07:32:39;21.17;59.48
67005;HTU21D;53920;51.094;5.902;2023-05-07T07:35:05;21.62;58.23
67005;HTU21D;53920;51.094;5.902;2023-05-07T07:37:32;21.87;57.36
67005;HTU21D;53920;51.094;5.902;2023-05-07T07:39:58;22.11;56.81
67005;HTU21D;53920;51.094;5.902;2023-05-07T07:42:25;22.42;55.94
67005;HTU21D;53920;51.094;5.902;2023-05-07T07:44:50;22.77;55.57
67005;HTU21D;53920;51.094;5.902;2023-05-07T07:47:20;23.06;54.48
67005;HTU21D;53920;51.094;5.902;2023-05-07T07:49:48;23.23;54.13
67005;HTU21D;53920;51.094;5.902;2023-05-07T07:52:14;23.35;53.71
67005;HTU21D;53920;51.094;5.902;2023-05-07T07:54:41;23.62;52.72
67005;HTU21D;53920;51.094;5.902;2023-05-07T07:57:08;23.90;51.59
67005;HTU21D;53920;51.094;5.902;2023-05-07T07:59:34;24.36;50.66
67005;HTU21D;53920;51.094;5.902;2023-05-07T08:02:01;25.28;49.15
67005;HTU21D;53920;51.094;5.902;2023-05-07T08:04:28;26.54;45.77
67005;HTU21D;53920;51.094;5.902;2023-05-07T08:06:59;27.78;42.60
67005;HTU21D;53920;51.094;5.902;2023-05-07T08:09:26;28.41;40.66
67005;HTU21D;53920;51.094;5.902;2023-05-07T08:11:53;29.31;39.01
67005;HTU21D;53920;51.094;5.902;2023-05-07T08:14:19;29.89;37.40
67005;HTU21D;53920;51.094;5.902;2023-05-07T08:16:47;30.85;35.14
67005;HTU21D;53920;51.094;5.902;2023-05-07T08:19:13;31.58;33.92
67005;HTU21D;53920;51.094;5.902;2023-05-07T08:21:40;31.64;34.32
67005;HTU21D;53920;51.094;5.902;2023-05-07T08:24:06;31.33;34.40
67005;HTU21D;53920;51.094;5.902;2023-05-07T08:26:33;30.35;35.56
67005;HTU21D;53920;51.094;5.902;2023-05-07T08:28:58;29.39;36.94
67005;HTU21D;53920;51.094;5.902;2023-05-07T08:31:24;28.97;38.08
67005;HTU21D;53920;51.094;5.902;2023-05-07T08:33:50;28.83;38.37
67005;HTU21D;53920;51.094;5.902;2023-05-07T08:36:16;28.34;39.40
67005;HTU21D;53920;51.094;5.902;2023-05-07T08:38:45;27.98;40.01
67005;HTU21D;53920;51.094;5.902;2023-05-07T08:41:11;27.81;40.90
67005;HTU21D;53920;51.094;5.902;2023-05-07T08:43:41;27.93;40.20
67005;HTU21D;53920;51.094;5.902;2023-05-07T08:46:10;28.09;40.39
67005;HTU21D;53920;51.094;5.902;2023-05-07T08:48:41;28.09;39.51
67005;HTU21D;53920;51.094;5.902;2023-05-07T08:51:17;27.97;40.34
67005;HTU21D;53920;51.094;5.902;2023-05-07T08:53:45;28.02;40.65
67005;HTU21D;53920;51.094;5.902;2023-05-07T08:56:17;27.90;40.62
67005;HTU21D;53920;51.094;5.902;2023-05-07T08:58:43;27.70;41.41
67005;HTU21D;53920;51.094;5.902;2023-05-07T09:01:14;27.57;40.68
67005;HTU21D;53920;51.094;5.902;2023-05-07T09:03:45;27.49;41.36
67005;HTU21D;53920;51.094;5.902;2023-05-07T09:06:13;27.44;41.65
67005;HTU21D;53920;51.094;5.902;2023-05-07T09:08:39;27.25;41.55
67005;HTU21D;53920;51.094;5.902;2023-05-07T09:11:07;27.02;42.39
67005;HTU21D;53920;51.094;5.902;2023-05-07T09:13:33;27.00;42.50
67005;HTU21D;53920;51.094;5.902;2023-05-07T09:16:11;27.00;42.29
67005;HTU21D;53920;51.094;5.902;2023-05-07T09:18:42;26.82;42.60
67005;HTU21D;53920;51.094;5.902;2023-05-07T09:21:20;26.63;42.72
67005;HTU21D;53920;51.094;5.902;2023-05-07T09:23:52;26.34;43.14
67005;HTU21D;53920;51.094;5.902;2023-05-07T09:26:23;26.22;43.10
67005;HTU21D;53920;51.094;5.902;2023-05-07T09:28:49;26.04;42.90
67005;HTU21D;53920;51.094;5.902;2023-05-07T09:31:16;25.97;43.08
67005;HTU21D;53920;51.094;5.902;2023-05-07T09:33:42;25.82;43.25
67005;HTU21D;53920;51.094;5.902;2023-05-07T09:36:10;25.95;43.40
67005;HTU21D;53920;51.094;5.902;2023-05-07T09:38:38;26.03;43.94
67005;HTU21D;53920;51.094;5.902;2023-05-07T09:41:10;26.20;44.20
67005;HTU21D;53920;51.094;5.902;2023-05-07T09:43:42;26.24;44.07
67005;HTU21D;53920;51.094;5.902;2023-05-07T09:46:15;26.47;43.27
67005;HTU21D;53920;51.094;5.902;2023-05-07T09:48:52;26.73;42.95
67005;HTU21D;53920;51.094;5.902;2023-05-07T09:51:29;27.15;42.98
67005;HTU21D;53920;51.094;5.902;2023-05-07T09:53:58;27.58;41.30
67005;HTU21D;53920;51.094;5.902;2023-05-07T09:56:30;27.83;40.53
67005;HTU21D;53920;51.094;5.902;2023-05-07T09:59:00;28.31;39.97
67005;HTU21D;53920;51.094;5.902;2023-05-07T10:01:31;28.69;39.04
67005;HTU21D;53920;51.094;5.902;2023-05-07T10:03:58;28.94;38.17
67005;HTU21D;53920;51.094;5.902;2023-05-07T10:06:25;28.97;38.65
67005;HTU21D;53920;51.094;5.902;2023-05-07T10:08:52;28.94;38.72
67005;HTU21D;53920;51.094;5.902;2023-05-07T10:11:19;28.87;37.94
67005;HTU21D;53920;51.094;5.902;2023-05-07T10:13:46;28.57;37.57
67005;HTU21D;53920;51.094;5.902;2023-05-07T10:16:14;28.58;37.05
67005;HTU21D;53920;51.094;5.902;2023-05-07T10:18:46;28.70;37.11
67005;HTU21D;53920;51.094;5.902;2023-05-07T10:21:17;28.97;36.50
67005;HTU21D;53920;51.094;5.902;2023-05-07T10:23:50;29.45;35.52
67005;HTU21D;53920;51.094;5.902;2023-05-07T10:26:20;30.81;32.67
67005;HTU21D;53920;51.094;5.902;2023-05-07T10:28:53;32.59;30.00
67005;HTU21D;53920;51.094;5.902;2023-05-07T10:33:56;34.11;27.12
67005;HTU21D;53920;51.094;5.902;2023-05-07T10:36:25;33.06;27.88
67005;HTU21D;53920;51.094;5.902;2023-05-07T10:38:52;31.96;29.26
67005;HTU21D;53920;51.094;5.902;2023-05-07T10:41:20;31.22;30.01
67005;HTU21D;53920;51.094;5.902;2023-05-07T10:43:47;30.47;30.88
67005;HTU21D;53920;51.094;5.902;2023-05-07T10:46:22;29.75;31.62
67005;HTU21D;53920;51.094;5.902;2023-05-07T10:51:32;29.06;34.44
67005;HTU21D;53920;51.094;5.902;2023-05-07T10:56:38;29.95;32.59
67005;HTU21D;53920;51.094;5.902;2023-05-07T11:02:04;30.34;31.22
67005;HTU21D;53920;51.094;5.902;2023-05-07T11:04:40;29.87;31.07
67005;HTU21D;53920;51.094;5.902;2023-05-07T11:07:28;29.58;31.84
67005;HTU21D;53920;51.094;5.902;2023-05-07T11:10:00;29.53;33.04
67005;HTU21D;53920;51.094;5.902;2023-05-07T11:12:51;29.63;32.86
67005;HTU21D;53920;51.094;5.902;2023-05-07T11:15:35;29.33;33.80
67005;HTU21D;53920;51.094;5.902;2023-05-07T11:18:05;28.62;34.73
67005;HTU21D;53920;51.094;5.902;2023-05-07T11:20:49;27.99;37.01
67005;HTU21D;53920;51.094;5.902;2023-05-07T11:26:43;26.83;39.51
67005;HTU21D;53920;51.094;5.902;2023-05-07T11:29:12;26.66;40.14
67005;HTU21D;53920;51.094;5.902;2023-05-07T11:31:40;26.61;41.26
67005;HTU21D;53920;51.094;5.902;2023-05-07T11:34:07;26.53;40.90
67005;HTU21D;53920;51.094;5.902;2023-05-07T11:36:33;26.28;40.81
67005;HTU21D;53920;51.094;5.902;2023-05-07T11:39:02;26.05;41.43
67005;HTU21D;53920;51.094;5.902;2023-05-07T11:41:36;25.87;41.69
67005;HTU21D;53920;51.094;5.902;2023-05-07T11:44:05;25.73;42.36
67005;HTU21D;53920;51.094;5.902;2023-05-07T11:46:32;25.64;42.91
67005;HTU21D;53920;51.094;5.902;2023-05-07T11:49:00;25.53;43.68
67005;HTU21D;53920;51.094;5.902;2023-05-07T11:51:27;25.38;43.78
67005;HTU21D;53920;51.094;5.902;2023-05-07T11:53:53;25.22;43.92
67005;HTU21D;53920;51.094;5.902;2023-05-07T11:56:19;25.10;46.35
67005;HTU21D;53920;51.094;5.902;2023-05-07T11:58:47;24.98;46.88
67005;HTU21D;53920;51.094;5.902;2023-05-07T12:01:14;24.83;46.93
67005;HTU21D;53920;51.094;5.902;2023-05-07T12:03:45;24.66;46.14
67005;HTU21D;53920;51.094;5.902;2023-05-07T12:06:13;24.55;46.42
67005;HTU21D;53920;51.094;5.902;2023-05-07T12:08:41;24.38;47.70
67005;HTU21D;53920;51.094;5.902;2023-05-07T12:11:12;23.85;49.92
67005;HTU21D;53920;51.094;5.902;2023-05-07T12:13:38;23.35;51.89
67005;HTU21D;53920;51.094;5.902;2023-05-07T12:16:05;23.02;53.51
67005;HTU21D;53920;51.094;5.902;2023-05-07T12:18:33;22.84;54.78
67005;HTU21D;53920;51.094;5.902;2023-05-07T12:21:00;22.69;55.20
67005;HTU21D;53920;51.094;5.902;2023-05-07T12:23:26;22.55;55.89
67005;HTU21D;53920;51.094;5.902;2023-05-07T12:25:53;22.46;56.24
67005;HTU21D;53920;51.094;5.902;2023-05-07T12:28:19;22.38;56.92
67005;HTU21D;53920;51.094;5.902;2023-05-07T12:30:47;22.34;57.27
67005;HTU21D;53920;51.094;5.902;2023-05-07T12:33:25;22.28;57.64
67005;HTU21D;53920;51.094;5.902;2023-05-07T12:35:53;22.26;58.55
67005;HTU21D;53920;51.094;5.902;2023-05-07T12:38:19;22.25;58.81
67005;HTU21D;53920;51.094;5.902;2023-05-07T12:40:50;22.17;59.59
67005;HTU21D;53920;51.094;5.902;2023-05-07T12:43:21;21.99;60.31
67005;HTU21D;53920;51.094;5.902;2023-05-07T12:45:51;21.96;60.86
67005;HTU21D;53920;51.094;5.902;2023-05-07T12:48:19;21.97;61.47
67005;HTU21D;53920;51.094;5.902;2023-05-07T12:50:47;21.97;61.67
67005;HTU21D;53920;51.094;5.902;2023-05-07T12:53:14;21.69;62.33
67005;HTU21D;53920;51.094;5.902;2023-05-07T12:55:43;21.21;64.41
67005;HTU21D;53920;51.094;5.902;2023-05-07T12:58:17;20.88;66.08
67005;HTU21D;53920;51.094;5.902;2023-05-07T13:00:44;20.73;67.18
67005;HTU21D;53920;51.094;5.902;2023-05-07T13:03:11;20.55;68.29
67005;HTU21D;53920;51.094;5.902;2023-05-07T13:05:37;20.46;68.70
67005;HTU21D;53920;51.094;5.902;2023-05-07T13:08:03;20.42;68.68
67005;HTU21D;53920;51.094;5.902;2023-05-07T13:10:29;20.40;68.72
67005;HTU21D;53920;51.094;5.902;2023-05-07T13:12:55;20.48;69.19
67005;HTU21D;53920;51.094;5.902;2023-05-07T13:15:21;20.92;68.93
67005;HTU21D;53920;51.094;5.902;2023-05-07T13:17:47;21.32;68.58
67005;HTU21D;53920;51.094;5.902;2023-05-07T13:20:13;21.50;67.54
67005;HTU21D;53920;51.094;5.902;2023-05-07T13:22:41;21.52;66.65
67005;HTU21D;53920;51.094;5.902;2023-05-07T13:25:07;21.70;66.55
67005;HTU21D;53920;51.094;5.902;2023-05-07T13:27:33;21.96;66.30
67005;HTU21D;53920;51.094;5.902;2023-05-07T13:30:04;22.27;65.27
67005;HTU21D;53920;51.094;5.902;2023-05-07T13:32:30;22.73;65.33
67005;HTU21D;53920;51.094;5.902;2023-05-07T13:34:57;23.09;62.72
67005;HTU21D;53920;51.094;5.902;2023-05-07T13:37:23;23.34;61.28
67005;HTU21D;53920;51.094;5.902;2023-05-07T13:39:48;23.49;60.04
67005;HTU21D;53920;51.094;5.902;2023-05-07T13:42:15;23.61;59.06
67005;HTU21D;53920;51.094;5.902;2023-05-07T13:44:41;23.69;58.99
67005;HTU21D;53920;51.094;5.902;2023-05-07T13:47:06;23.85;57.72
67005;HTU21D;53920;51.094;5.902;2023-05-07T13:49:32;23.98;57.14
67005;HTU21D;53920;51.094;5.902;2023-05-07T13:51:58;24.10;55.95
67005;HTU21D;53920;51.094;5.902;2023-05-07T13:54:24;24.04;53.60
67005;HTU21D;53920;51.094;5.902;2023-05-07T13:56:50;24.09;53.07
67005;HTU21D;53920;51.094;5.902;2023-05-07T13:59:16;24.12;52.23
67005;HTU21D;53920;51.094;5.902;2023-05-07T14:01:42;24.20;51.97
67005;HTU21D;53920;51.094;5.902;2023-05-07T14:04:08;24.34;51.96
67005;HTU21D;53920;51.094;5.902;2023-05-07T14:06:34;24.46;52.12
67005;HTU21D;53920;51.094;5.902;2023-05-07T14:09:00;24.48;51.37
67005;HTU21D;53920;51.094;5.902;2023-05-07T14:11:26;24.48;50.54
67005;HTU21D;53920;51.094;5.902;2023-05-07T14:13:51;24.44;50.36
67005;HTU21D;53920;51.094;5.902;2023-05-07T14:16:17;24.42;50.47
67005;HTU21D;53920;51.094;5.902;2023-05-07T14:18:43;24.42;50.07
67005;HTU21D;53920;51.094;5.902;2023-05-07T14:21:09;24.42;49.72
67005;HTU21D;53920;51.094;5.902;2023-05-07T14:23:35;24.40;49.40
67005;HTU21D;53920;51.094;5.902;2023-05-07T14:26:01;24.31;48.30
67005;HTU21D;53920;51.094;5.902;2023-05-07T14:28:27;24.29;49.05
67005;HTU21D;53920;51.094;5.902;2023-05-07T14:30:53;24.25;49.34
67005;HTU21D;53920;51.094;5.902;2023-05-07T14:33:19;24.29;49.40
67005;HTU21D;53920;51.094;5.902;2023-05-07T14:35:45;24.28;48.34
67005;HTU21D;53920;51.094;5.902;2023-05-07T14:38:15;24.25;48.70
67005;HTU21D;53920;51.094;5.902;2023-05-07T14:40:41;24.32;48.94
67005;HTU21D;53920;51.094;5.902;2023-05-07T14:43:07;24.24;48.05
67005;HTU21D;53920;51.094;5.902;2023-05-07T14:45:33;24.35;48.57
67005;HTU21D;53920;51.094;5.902;2023-05-07T14:47:59;24.46;48.05
67005;HTU21D;53920;51.094;5.902;2023-05-07T14:50:25;24.44;47.65
67005;HTU21D;53920;51.094;5.902;2023-05-07T14:52:51;24.50;48.04
67005;HTU21D;53920;51.094;5.902;2023-05-07T14:55:17;24.55;48.06
67005;HTU21D;53920;51.094;5.902;2023-05-07T14:57:43;24.62;48.61
67005;HTU21D;53920;51.094;5.902;2023-05-07T15:00:09;24.49;47.91
67005;HTU21D;53920;51.094;5.902;2023-05-07T15:02:36;24.40;47.70
67005;HTU21D;53920;51.094;5.902;2023-05-07T15:05:02;24.32;48.21
67005;HTU21D;53920;51.094;5.902;2023-05-07T15:07:28;24.47;49.17
67005;HTU21D;53920;51.094;5.902;2023-05-07T15:09:54;24.64;49.78
67005;HTU21D;53920;51.094;5.902;2023-05-07T15:12:20;24.73;49.27
67005;HTU21D;53920;51.094;5.902;2023-05-07T15:14:47;24.80;49.54
67005;HTU21D;53920;51.094;5.902;2023-05-07T15:17:13;24.84;49.02
67005;HTU21D;53920;51.094;5.902;2023-05-07T15:19:40;24.70;48.60
67005;HTU21D;53920;51.094;5.902;2023-05-07T15:22:06;24.61;48.60
67005;HTU21D;53920;51.094;5.902;2023-05-07T15:24:32;24.50;49.32
67005;HTU21D;53920;51.094;5.902;2023-05-07T15:26:58;24.50;49.05
67005;HTU21D;53920;51.094;5.902;2023-05-07T15:29:24;24.49;49.61
67005;HTU21D;53920;51.094;5.902;2023-05-07T15:31:50;24.43;49.18